sensor_id;sensor_type;location;lat;lon;timestamp;P1;durP1;ratioP1;P2;durP2;ratioP2
9918;SDS011;4998;51.024;13.828;2023-02-28T00:01:19;3.57;;;2.57;;
9918;SDS011;4998;51.024;13.828;2023-02-28T00:03:47;3.63;;;2.87;;
9918;SDS011;4998;51.024;13.828;2023-02-28T00:06:14;2.70;;;2.50;;
9918;SDS011;4998;51.024;13.828;2023-02-28T00:08:41;3.30;;;2.87;;
9918;SDS011;4998;51.024;13.828;2023-02-28T00:11:15;2.77;;;2.57;;
9918;SDS011;4998;51.024;13.828;2023-02-28T00:13:43;4.53;;;3.03;;
9918;SDS011;4998;51.024;13.828;2023-02-28T00:16:15;5.30;;;3.10;;
9918;SDS011;4998;51.024;13.828;2023-02-28T00:18:44;4.00;;;2.97;;
9918;SDS011;4998;51.024;13.828;2023-02-28T00:21:12;2.80;;;2.40;;
9918;SDS011;4998;51.024;13.828;2023-02-28T00:23:39;3.30;;;3.00;;
9918;SDS011;4998;51.024;13.828;2023-02-28T00:26:06;4.50;;;3.50;;
9918;SDS011;4998;51.024;13.828;2023-02-28T00:28:33;3.70;;;3.00;;
9918;SDS011;4998;51.024;13.828;2023-02-28T00:31:00;3.40;;;3.00;;
9918;SDS011;4998;51.024;13.828;2023-02-28T00:33:29;3.47;;;3.17;;
9918;SDS011;4998;51.024;13.828;2023-02-28T00:36:03;3.20;;;2.80;;
9918;SDS011;4998;51.024;13.828;2023-02-28T00:38:31;3.10;;;2.80;;
9918;SDS011;4998;51.024;13.828;2023-02-28T00:40:58;4.10;;;2.90;;
9918;SDS011;4998;51.024;13.828;2023-02-28T00:43:29;3.23;;;2.70;;
9918;SDS011;4998;51.024;13.828;2023-02-28T00:45:57;3.60;;;2.97;;
9918;SDS011;4998;51.024;13.828;2023-02-28T00:48:24;4.83;;;3.60;;
9918;SDS011;4998;51.024;13.828;2023-02-28T00:50:52;3.40;;;2.90;;
9918;SDS011;4998;51.024;13.828;2023-02-28T00:53:19;3.40;;;3.10;;
9918;SDS011;4998;51.024;13.828;2023-02-28T00:55:47;3.03;;;2.73;;
9918;SDS011;4998;51.024;13.828;2023-02-28T00:58:14;3.23;;;2.93;;
9918;SDS011;4998;51.024;13.828;2023-02-28T01:00:41;3.90;;;3.07;;
9918;SDS011;4998;51.024;13.828;2023-02-28T01:03:08;3.50;;;3.17;;
9918;SDS011;4998;51.024;13.828;2023-02-28T01:05:35;2.93;;;2.73;;
9918;SDS011;4998;51.024;13.828;2023-02-28T01:08:04;3.43;;;3.10;;
9918;SDS011;4998;51.024;13.828;2023-02-28T01:10:31;3.10;;;2.80;;
9918;SDS011;4998;51.024;13.828;2023-02-28T01:12:58;4.17;;;2.90;;
9918;SDS011;4998;51.024;13.828;2023-02-28T01:15:25;3.60;;;3.17;;
9918;SDS011;4998;51.024;13.828;2023-02-28T01:17:52;3.40;;;3.10;;
9918;SDS011;4998;51.024;13.828;2023-02-28T01:20:19;5.27;;;3.80;;
9918;SDS011;4998;51.024;13.828;2023-02-28T01:22:46;3.63;;;3.27;;
9918;SDS011;4998;51.024;13.828;2023-02-28T01:25:15;4.03;;;2.97;;
9918;SDS011;4998;51.024;13.828;2023-02-28T01:27:42;3.30;;;3.00;;
9918;SDS011;4998;51.024;13.828;2023-02-28T01:30:09;3.90;;;3.50;;
9918;SDS011;4998;51.024;13.828;2023-02-28T01:32:37;3.13;;;2.83;;
9918;SDS011;4998;51.024;13.828;2023-02-28T01:35:04;3.53;;;3.20;;
9918;SDS011;4998;51.024;13.828;2023-02-28T01:37:31;4.80;;;3.47;;
9918;SDS011;4998;51.024;13.828;2023-02-28T01:39:58;5.07;;;3.30;;
9918;SDS011;4998;51.024;13.828;2023-02-28T01:42:27;3.43;;;3.10;;
9918;SDS011;4998;51.024;13.828;2023-02-28T01:44:58;3.20;;;2.90;;
9918;SDS011;4998;51.024;13.828;2023-02-28T01:47:41;4.00;;;3.27;;
9918;SDS011;4998;51.024;13.828;2023-02-28T01:50:11;3.80;;;3.40;;
9918;SDS011;4998;51.024;13.828;2023-02-28T01:52:40;3.70;;;3.27;;
9918;SDS011;4998;51.024;13.828;2023-02-28T01:55:09;3.30;;;3.00;;
9918;SDS011;4998;51.024;13.828;2023-02-28T01:57:40;3.40;;;3.10;;
9918;SDS011;4998;51.024;13.828;2023-02-28T02:00:10;4.33;;;3.30;;
9918;SDS011;4998;51.024;13.828;2023-02-28T02:02:40;6.30;;;3.63;;
9918;SDS011;4998;51.024;13.828;2023-02-28T02:05:10;7.87;;;3.83;;
9918;SDS011;4998;51.024;13.828;2023-02-28T02:07:41;4.07;;;3.57;;
9918;SDS011;4998;51.024;13.828;2023-02-28T02:10:13;3.93;;;3.27;;
9918;SDS011;4998;51.024;13.828;2023-02-28T02:12:47;4.90;;;3.50;;
9918;SDS011;4998;51.024;13.828;2023-02-28T02:15:32;6.77;;;3.57;;
9918;SDS011;4998;51.024;13.828;2023-02-28T02:18:07;3.30;;;3.00;;
9918;SDS011;4998;51.024;13.828;2023-02-28T02:20:56;3.57;;;3.27;;
9918;SDS011;4998;51.024;13.828;2023-02-28T02:23:52;5.20;;;3.77;;
9918;SDS011;4998;51.024;13.828;2023-02-28T02:29:46;3.50;;;3.17;;
9918;SDS011;4998;51.024;13.828;2023-02-28T02:35:54;5.77;;;3.40;;
9918;SDS011;4998;51.024;13.828;2023-02-28T02:38:28;4.07;;;3.30;;
9918;SDS011;4998;51.024;13.828;2023-02-28T02:41:04;5.67;;;3.70;;
9918;SDS011;4998;51.024;13.828;2023-02-28T02:43:35;4.07;;;3.27;;
9918;SDS011;4998;51.024;13.828;2023-02-28T02:46:08;3.47;;;3.17;;
9918;SDS011;4998;51.024;13.828;2023-02-28T02:48:40;3.77;;;3.23;;
9918;SDS011;4998;51.024;13.828;2023-02-28T02:51:12;4.97;;;3.40;;
9918;SDS011;4998;51.024;13.828;2023-02-28T02:53:41;4.80;;;3.47;;
9918;SDS011;4998;51.024;13.828;2023-02-28T02:56:14;5.90;;;3.97;;
9918;SDS011;4998;51.024;13.828;2023-02-28T02:58:44;5.07;;;3.87;;
9918;SDS011;4998;51.024;13.828;2023-02-28T03:01:16;7.97;;;4.20;;
9918;SDS011;4998;51.024;13.828;2023-02-28T03:03:52;4.10;;;3.67;;
9918;SDS011;4998;51.024;13.828;2023-02-28T03:06:22;4.80;;;3.70;;
9918;SDS011;4998;51.024;13.828;2023-02-28T03:08:50;4.30;;;3.53;;
9918;SDS011;4998;51.024;13.828;2023-02-28T03:11:17;4.13;;;3.63;;
9918;SDS011;4998;51.024;13.828;2023-02-28T03:13:52;4.73;;;4.10;;
9918;SDS011;4998;51.024;13.828;2023-02-28T03:16:40;4.50;;;4.10;;
9918;SDS011;4998;51.024;13.828;2023-02-28T03:19:26;6.03;;;4.17;;
9918;SDS011;4998;51.024;13.828;2023-02-28T03:22:12;6.10;;;4.23;;
9918;SDS011;4998;51.024;13.828;2023-02-28T03:24:48;4.43;;;3.70;;
9918;SDS011;4998;51.024;13.828;2023-02-28T03:27:22;3.90;;;3.40;;
9918;SDS011;4998;51.024;13.828;2023-02-28T03:29:54;5.30;;;3.83;;
9918;SDS011;4998;51.024;13.828;2023-02-28T03:32:28;4.07;;;3.67;;
9918;SDS011;4998;51.024;13.828;2023-02-28T03:35:00;5.73;;;3.83;;
9918;SDS011;4998;51.024;13.828;2023-02-28T03:37:33;4.33;;;3.93;;
9918;SDS011;4998;51.024;13.828;2023-02-28T03:40:04;4.60;;;4.00;;
9918;SDS011;4998;51.024;13.828;2023-02-28T03:42:36;6.10;;;3.83;;
9918;SDS011;4998;51.024;13.828;2023-02-28T03:45:11;6.07;;;3.87;;
9918;SDS011;4998;51.024;13.828;2023-02-28T03:47:40;4.83;;;3.67;;
9918;SDS011;4998;51.024;13.828;2023-02-28T03:50:11;4.03;;;3.60;;
9918;SDS011;4998;51.024;13.828;2023-02-28T03:52:47;5.00;;;4.27;;
9918;SDS011;4998;51.024;13.828;2023-02-28T03:55:19;4.20;;;3.80;;
9918;SDS011;4998;51.024;13.828;2023-02-28T03:57:50;5.50;;;4.20;;
9918;SDS011;4998;51.024;13.828;2023-02-28T04:00:25;4.33;;;3.93;;
9918;SDS011;4998;51.024;13.828;2023-02-28T04:02:57;7.80;;;3.77;;
9918;SDS011;4998;51.024;13.828;2023-02-28T04:05:25;4.70;;;4.27;;
9918;SDS011;4998;51.024;13.828;2023-02-28T04:07:55;6.00;;;4.90;;
9918;SDS011;4998;51.024;13.828;2023-02-28T04:10:30;4.80;;;4.40;;
9918;SDS011;4998;51.024;13.828;2023-02-28T04:12:57;5.77;;;4.63;;
9918;SDS011;4998;51.024;13.828;2023-02-28T04:15:24;4.67;;;4.10;;
9918;SDS011;4998;51.024;13.828;2023-02-28T04:17:52;4.23;;;3.53;;
9918;SDS011;4998;51.024;13.828;2023-02-28T04:20:19;4.27;;;3.87;;
9918;SDS011;4998;51.024;13.828;2023-02-28T04:22:46;5.53;;;4.27;;
9918;SDS011;4998;51.024;13.828;2023-02-28T04:25:15;6.83;;;4.40;;
9918;SDS011;4998;51.024;13.828;2023-02-28T04:27:42;6.13;;;4.90;;
9918;SDS011;4998;51.024;13.828;2023-02-28T04:30:10;6.27;;;4.20;;
9918;SDS011;4998;51.024;13.828;2023-02-28T04:32:37;4.90;;;4.00;;
9918;SDS011;4998;51.024;13.828;2023-02-28T04:35:04;6.10;;;4.80;;
9918;SDS011;4998;51.024;13.828;2023-02-28T04:37:32;5.03;;;4.53;;
9918;SDS011;4998;51.024;13.828;2023-02-28T04:40:00;6.30;;;5.00;;
9918;SDS011;4998;51.024;13.828;2023-02-28T04:42:28;5.77;;;4.20;;
9918;SDS011;4998;51.024;13.828;2023-02-28T04:45:00;4.57;;;4.17;;
9918;SDS011;4998;51.024;13.828;2023-02-28T04:47:27;5.60;;;4.53;;
9918;SDS011;4998;51.024;13.828;2023-02-28T04:49:54;5.00;;;4.50;;
9918;SDS011;4998;51.024;13.828;2023-02-28T04:52:21;5.57;;;3.90;;
9918;SDS011;4998;51.024;13.828;2023-02-28T04:54:48;4.37;;;3.97;;
9918;SDS011;4998;51.024;13.828;2023-02-28T04:57:15;7.23;;;4.37;;
9918;SDS011;4998;51.024;13.828;2023-02-28T04:59:44;4.33;;;3.93;;
9918;SDS011;4998;51.024;13.828;2023-02-28T05:02:11;5.03;;;4.53;;
9918;SDS011;4998;51.024;13.828;2023-02-28T05:04:38;6.33;;;4.40;;
9918;SDS011;4998;51.024;13.828;2023-02-28T05:07:05;5.83;;;4.20;;
9918;SDS011;4998;51.024;13.828;2023-02-28T05:09:32;6.43;;;4.90;;
9918;SDS011;4998;51.024;13.828;2023-02-28T05:11:59;5.67;;;4.60;;
9918;SDS011;4998;51.024;13.828;2023-02-28T05:14:26;6.63;;;5.17;;
9918;SDS011;4998;51.024;13.828;2023-02-28T05:16:55;5.10;;;4.60;;
9918;SDS011;4998;51.024;13.828;2023-02-28T05:19:22;10.50;;;4.67;;
9918;SDS011;4998;51.024;13.828;2023-02-28T05:21:49;5.80;;;4.43;;
9918;SDS011;4998;51.024;13.828;2023-02-28T05:24:18;6.90;;;4.63;;
9918;SDS011;4998;51.024;13.828;2023-02-28T05:26:48;6.00;;;4.70;;
9918;SDS011;4998;51.024;13.828;2023-02-28T05:29:16;5.53;;;4.90;;
9918;SDS011;4998;51.024;13.828;2023-02-28T05:31:43;7.30;;;4.93;;
9918;SDS011;4998;51.024;13.828;2023-02-28T05:34:11;5.77;;;5.10;;
9918;SDS011;4998;51.024;13.828;2023-02-28T05:36:40;6.43;;;5.13;;
9918;SDS011;4998;51.024;13.828;2023-02-28T05:39:07;5.80;;;5.10;;
9918;SDS011;4998;51.024;13.828;2023-02-28T05:41:37;5.30;;;4.50;;
9918;SDS011;4998;51.024;13.828;2023-02-28T05:44:08;8.57;;;5.20;;
9918;SDS011;4998;51.024;13.828;2023-02-28T05:46:35;6.03;;;5.10;;
9918;SDS011;4998;51.024;13.828;2023-02-28T05:49:02;6.60;;;5.10;;
9918;SDS011;4998;51.024;13.828;2023-02-28T05:51:31;5.43;;;4.70;;
9918;SDS011;4998;51.024;13.828;2023-02-28T05:53:59;7.30;;;5.30;;
9918;SDS011;4998;51.024;13.828;2023-02-28T05:56:27;7.30;;;5.27;;
9918;SDS011;4998;51.024;13.828;2023-02-28T05:58:55;6.90;;;5.03;;
9918;SDS011;4998;51.024;13.828;2023-02-28T06:01:23;6.33;;;4.90;;
9918;SDS011;4998;51.024;13.828;2023-02-28T06:03:57;7.87;;;5.43;;
9918;SDS011;4998;51.024;13.828;2023-02-28T06:06:24;6.70;;;5.13;;
9918;SDS011;4998;51.024;13.828;2023-02-28T06:08:53;6.30;;;4.80;;
9918;SDS011;4998;51.024;13.828;2023-02-28T06:11:20;5.90;;;4.90;;
9918;SDS011;4998;51.024;13.828;2023-02-28T06:13:52;7.87;;;5.60;;
9918;SDS011;4998;51.024;13.828;2023-02-28T06:16:20;6.73;;;5.10;;
9918;SDS011;4998;51.024;13.828;2023-02-28T06:18:47;7.47;;;5.10;;
9918;SDS011;4998;51.024;13.828;2023-02-28T06:21:14;6.47;;;5.00;;
9918;SDS011;4998;51.024;13.828;2023-02-28T06:23:41;6.70;;;4.80;;
9918;SDS011;4998;51.024;13.828;2023-02-28T06:26:10;8.90;;;5.27;;
9918;SDS011;4998;51.024;13.828;2023-02-28T06:28:37;6.90;;;5.13;;
9918;SDS011;4998;51.024;13.828;2023-02-28T06:31:08;10.00;;;5.00;;
9918;SDS011;4998;51.024;13.828;2023-02-28T06:33:36;6.07;;;5.47;;
9918;SDS011;4998;51.024;13.828;2023-02-28T06:36:04;6.03;;;5.40;;
9918;SDS011;4998;51.024;13.828;2023-02-28T06:38:33;7.33;;;4.73;;
9918;SDS011;4998;51.024;13.828;2023-02-28T06:41:00;6.97;;;4.80;;
9918;SDS011;4998;51.024;13.828;2023-02-28T06:43:29;7.00;;;5.60;;
9918;SDS011;4998;51.024;13.828;2023-02-28T06:45:59;6.43;;;5.27;;
9918;SDS011;4998;51.024;13.828;2023-02-28T06:48:28;6.90;;;5.23;;
9918;SDS011;4998;51.024;13.828;2023-02-28T06:51:02;7.27;;;4.60;;
9918;SDS011;4998;51.024;13.828;2023-02-28T06:53:30;6.20;;;5.10;;
9918;SDS011;4998;51.024;13.828;2023-02-28T06:55:57;6.43;;;5.13;;
9918;SDS011;4998;51.024;13.828;2023-02-28T06:58:24;7.00;;;5.13;;
9918;SDS011;4998;51.024;13.828;2023-02-28T07:00:53;6.97;;;5.43;;
9918;SDS011;4998;51.024;13.828;2023-02-28T07:03:21;6.47;;;4.63;;
9918;SDS011;4998;51.024;13.828;2023-02-28T07:05:48;6.90;;;5.20;;
9918;SDS011;4998;51.024;13.828;2023-02-28T07:08:16;6.53;;;4.63;;
9918;SDS011;4998;51.024;13.828;2023-02-28T07:10:43;6.33;;;4.70;;
9918;SDS011;4998;51.024;13.828;2023-02-28T07:13:10;6.50;;;5.40;;
9918;SDS011;4998;51.024;13.828;2023-02-28T07:15:37;7.37;;;5.47;;
9918;SDS011;4998;51.024;13.828;2023-02-28T07:18:06;5.87;;;5.17;;
9918;SDS011;4998;51.024;13.828;2023-02-28T07:20:33;15.30;;;5.83;;
9918;SDS011;4998;51.024;13.828;2023-02-28T07:23:00;5.87;;;5.17;;
9918;SDS011;4998;51.024;13.828;2023-02-28T07:25:27;5.80;;;4.87;;
9918;SDS011;4998;51.024;13.828;2023-02-28T07:27:55;6.17;;;5.40;;
9918;SDS011;4998;51.024;13.828;2023-02-28T07:30:24;6.97;;;5.20;;
9918;SDS011;4998;51.024;13.828;2023-02-28T07:32:51;5.53;;;4.70;;
9918;SDS011;4998;51.024;13.828;2023-02-28T07:35:21;7.90;;;5.90;;
9918;SDS011;4998;51.024;13.828;2023-02-28T07:37:48;7.83;;;4.73;;
9918;SDS011;4998;51.024;13.828;2023-02-28T07:40:15;6.60;;;5.10;;
9918;SDS011;4998;51.024;13.828;2023-02-28T07:42:43;7.30;;;5.10;;
9918;SDS011;4998;51.024;13.828;2023-02-28T07:45:10;7.60;;;5.60;;
9918;SDS011;4998;51.024;13.828;2023-02-28T07:47:38;6.17;;;5.33;;
9918;SDS011;4998;51.024;13.828;2023-02-28T07:50:05;8.33;;;5.63;;
9918;SDS011;4998;51.024;13.828;2023-02-28T07:52:33;7.67;;;6.00;;
9918;SDS011;4998;51.024;13.828;2023-02-28T07:55:00;7.13;;;5.20;;
9918;SDS011;4998;51.024;13.828;2023-02-28T07:57:27;6.97;;;5.67;;
9918;SDS011;4998;51.024;13.828;2023-02-28T07:59:54;6.50;;;5.57;;
9918;SDS011;4998;51.024;13.828;2023-02-28T08:02:21;7.73;;;5.90;;
9918;SDS011;4998;51.024;13.828;2023-02-28T08:04:48;7.33;;;5.53;;
9918;SDS011;4998;51.024;13.828;2023-02-28T08:07:16;7.30;;;5.37;;
9918;SDS011;4998;51.024;13.828;2023-02-28T08:09:44;7.80;;;5.80;;
9918;SDS011;4998;51.024;13.828;2023-02-28T08:12:11;7.23;;;6.00;;
9918;SDS011;4998;51.024;13.828;2023-02-28T08:14:38;7.67;;;6.07;;
9918;SDS011;4998;51.024;13.828;2023-02-28T08:17:05;8.50;;;6.27;;
9918;SDS011;4998;51.024;13.828;2023-02-28T08:19:32;7.03;;;5.63;;
9918;SDS011;4998;51.024;13.828;2023-02-28T08:21:59;7.90;;;6.13;;
9918;SDS011;4998;51.024;13.828;2023-02-28T08:24:26;7.20;;;6.07;;
9918;SDS011;4998;51.024;13.828;2023-02-28T08:26:55;8.93;;;6.23;;
9918;SDS011;4998;51.024;13.828;2023-02-28T08:29:22;8.33;;;6.10;;
9918;SDS011;4998;51.024;13.828;2023-02-28T08:31:49;7.70;;;5.97;;
9918;SDS011;4998;51.024;13.828;2023-02-28T08:34:16;9.20;;;6.47;;
9918;SDS011;4998;51.024;13.828;2023-02-28T08:36:43;9.27;;;6.20;;
9918;SDS011;4998;51.024;13.828;2023-02-28T08:39:10;10.17;;;6.60;;
9918;SDS011;4998;51.024;13.828;2023-02-28T08:41:38;7.20;;;6.30;;
9918;SDS011;4998;51.024;13.828;2023-02-28T08:44:06;9.07;;;6.60;;
9918;SDS011;4998;51.024;13.828;2023-02-28T08:46:33;8.10;;;6.27;;
9918;SDS011;4998;51.024;13.828;2023-02-28T08:49:00;7.70;;;5.97;;
9918;SDS011;4998;51.024;13.828;2023-02-28T08:51:27;9.00;;;6.60;;
9918;SDS011;4998;51.024;13.828;2023-02-28T08:53:55;9.03;;;6.83;;
9918;SDS011;4998;51.024;13.828;2023-02-28T08:56:25;8.73;;;6.80;;
9918;SDS011;4998;51.024;13.828;2023-02-28T08:58:53;10.97;;;7.40;;
9918;SDS011;4998;51.024;13.828;2023-02-28T09:01:23;9.37;;;6.33;;
9918;SDS011;4998;51.024;13.828;2023-02-28T09:03:52;7.60;;;6.00;;
9918;SDS011;4998;51.024;13.828;2023-02-28T09:06:20;7.60;;;5.77;;
9918;SDS011;4998;51.024;13.828;2023-02-28T09:08:48;8.70;;;6.50;;
9918;SDS011;4998;51.024;13.828;2023-02-28T09:11:15;7.00;;;5.70;;
9918;SDS011;4998;51.024;13.828;2023-02-28T09:13:44;7.70;;;6.10;;
9918;SDS011;4998;51.024;13.828;2023-02-28T09:16:12;8.37;;;5.97;;
9918;SDS011;4998;51.024;13.828;2023-02-28T09:18:42;7.97;;;5.97;;
9918;SDS011;4998;51.024;13.828;2023-02-28T09:21:11;8.00;;;6.20;;
9918;SDS011;4998;51.024;13.828;2023-02-28T09:23:39;7.47;;;5.67;;
9918;SDS011;4998;51.024;13.828;2023-02-28T09:26:07;6.57;;;5.67;;
9918;SDS011;4998;51.024;13.828;2023-02-28T09:28:39;7.03;;;5.67;;
9918;SDS011;4998;51.024;13.828;2023-02-28T09:31:06;6.47;;;5.70;;
9918;SDS011;4998;51.024;13.828;2023-02-28T09:33:37;7.93;;;5.43;;
9918;SDS011;4998;51.024;13.828;2023-02-28T09:36:06;6.07;;;5.33;;
9918;SDS011;4998;51.024;13.828;2023-02-28T09:38:33;8.57;;;6.00;;
9918;SDS011;4998;51.024;13.828;2023-02-28T09:41:01;6.63;;;5.20;;
9918;SDS011;4998;51.024;13.828;2023-02-28T09:43:31;6.10;;;4.90;;
9918;SDS011;4998;51.024;13.828;2023-02-28T09:46:02;6.57;;;5.70;;
9918;SDS011;4998;51.024;13.828;2023-02-28T09:48:37;7.27;;;4.70;;
9918;SDS011;4998;51.024;13.828;2023-02-28T09:51:12;8.30;;;5.67;;
9918;SDS011;4998;51.024;13.828;2023-02-28T09:53:49;6.97;;;5.20;;
9918;SDS011;4998;51.024;13.828;2023-02-28T09:56:18;6.73;;;5.80;;
9918;SDS011;4998;51.024;13.828;2023-02-28T09:58:53;8.83;;;4.97;;
9918;SDS011;4998;51.024;13.828;2023-02-28T10:01:24;7.40;;;5.47;;
9918;SDS011;4998;51.024;13.828;2023-02-28T10:03:56;5.40;;;4.57;;
9918;SDS011;4998;51.024;13.828;2023-02-28T10:06:28;6.43;;;4.97;;
9918;SDS011;4998;51.024;13.828;2023-02-28T10:09:00;6.87;;;4.90;;
9918;SDS011;4998;51.024;13.828;2023-02-28T10:11:32;5.30;;;4.67;;
9918;SDS011;4998;51.024;13.828;2023-02-28T10:14:02;6.20;;;4.60;;
9918;SDS011;4998;51.024;13.828;2023-02-28T10:16:37;7.13;;;5.07;;
9918;SDS011;4998;51.024;13.828;2023-02-28T10:19:12;9.00;;;5.67;;
9918;SDS011;4998;51.024;13.828;2023-02-28T10:21:47;7.33;;;5.90;;
9918;SDS011;4998;51.024;13.828;2023-02-28T10:24:23;9.23;;;5.97;;
9918;SDS011;4998;51.024;13.828;2023-02-28T10:26:56;7.90;;;5.40;;
9918;SDS011;4998;51.024;13.828;2023-02-28T10:29:26;5.90;;;5.30;;
9918;SDS011;4998;51.024;13.828;2023-02-28T10:31:54;8.27;;;6.20;;
9918;SDS011;4998;51.024;13.828;2023-02-28T10:34:22;7.13;;;5.80;;
9918;SDS011;4998;51.024;13.828;2023-02-28T10:36:51;8.00;;;6.37;;
9918;SDS011;4998;51.024;13.828;2023-02-28T10:39:39;8.63;;;6.37;;
9918;SDS011;4998;51.024;13.828;2023-02-28T10:42:18;11.50;;;6.67;;
9918;SDS011;4998;51.024;13.828;2023-02-28T10:44:47;10.10;;;6.57;;
9918;SDS011;4998;51.024;13.828;2023-02-28T10:47:14;6.97;;;5.50;;
9918;SDS011;4998;51.024;13.828;2023-02-28T10:49:46;7.67;;;5.77;;
9918;SDS011;4998;51.024;13.828;2023-02-28T10:52:18;7.93;;;6.30;;
9918;SDS011;4998;51.024;13.828;2023-02-28T10:55:15;6.63;;;5.60;;
9918;SDS011;4998;51.024;13.828;2023-02-28T10:57:47;8.10;;;6.40;;
9918;SDS011;4998;51.024;13.828;2023-02-28T11:00:16;7.83;;;5.93;;
9918;SDS011;4998;51.024;13.828;2023-02-28T11:02:46;8.27;;;5.97;;
9918;SDS011;4998;51.024;13.828;2023-02-28T11:05:24;10.13;;;6.30;;
9918;SDS011;4998;51.024;13.828;2023-02-28T11:07:53;10.27;;;5.93;;
9918;SDS011;4998;51.024;13.828;2023-02-28T11:10:23;8.23;;;6.33;;
9918;SDS011;4998;51.024;13.828;2023-02-28T11:12:55;8.57;;;6.30;;
9918;SDS011;4998;51.024;13.828;2023-02-28T11:15:23;6.67;;;5.57;;
9918;SDS011;4998;51.024;13.828;2023-02-28T11:17:55;6.97;;;5.93;;
9918;SDS011;4998;51.024;13.828;2023-02-28T11:20:26;7.80;;;5.90;;
9918;SDS011;4998;51.024;13.828;2023-02-28T11:22:56;7.17;;;5.77;;
9918;SDS011;4998;51.024;13.828;2023-02-28T11:25:28;9.00;;;5.63;;
9918;SDS011;4998;51.024;13.828;2023-02-28T11:27:57;7.30;;;5.40;;
9918;SDS011;4998;51.024;13.828;2023-02-28T11:30:31;9.90;;;5.90;;
9918;SDS011;4998;51.024;13.828;2023-02-28T11:33:01;7.87;;;6.27;;
9918;SDS011;4998;51.024;13.828;2023-02-28T11:35:44;6.93;;;5.40;;
9918;SDS011;4998;51.024;13.828;2023-02-28T11:38:15;7.93;;;5.43;;
9918;SDS011;4998;51.024;13.828;2023-02-28T11:40:43;7.63;;;5.50;;
9918;SDS011;4998;51.024;13.828;2023-02-28T11:43:20;6.87;;;5.07;;
9918;SDS011;4998;51.024;13.828;2023-02-28T11:46:04;6.20;;;5.40;;
9918;SDS011;4998;51.024;13.828;2023-02-28T11:48:43;8.27;;;5.70;;
9918;SDS011;4998;51.024;13.828;2023-02-28T11:51:24;6.10;;;5.10;;
9918;SDS011;4998;51.024;13.828;2023-02-28T11:54:03;7.83;;;5.50;;
9918;SDS011;4998;51.024;13.828;2023-02-28T11:56:45;8.47;;;5.93;;
9918;SDS011;4998;51.024;13.828;2023-02-28T11:59:20;7.67;;;6.07;;
9918;SDS011;4998;51.024;13.828;2023-02-28T12:02:26;8.33;;;5.80;;
9918;SDS011;4998;51.024;13.828;2023-02-28T12:05:03;8.90;;;6.67;;
9918;SDS011;4998;51.024;13.828;2023-02-28T12:07:43;6.97;;;5.37;;
9918;SDS011;4998;51.024;13.828;2023-02-28T12:10:21;7.60;;;5.63;;
9918;SDS011;4998;51.024;13.828;2023-02-28T12:12:54;6.30;;;5.00;;
9918;SDS011;4998;51.024;13.828;2023-02-28T12:15:33;7.00;;;5.37;;
9918;SDS011;4998;51.024;13.828;2023-02-28T12:18:15;6.87;;;5.30;;
9918;SDS011;4998;51.024;13.828;2023-02-28T12:20:53;6.53;;;5.60;;
9918;SDS011;4998;51.024;13.828;2023-02-28T12:23:30;6.70;;;6.00;;
9918;SDS011;4998;51.024;13.828;2023-02-28T12:26:20;6.30;;;5.60;;
9918;SDS011;4998;51.024;13.828;2023-02-28T12:28:53;6.30;;;5.70;;
9918;SDS011;4998;51.024;13.828;2023-02-28T12:31:26;7.23;;;5.77;;
9918;SDS011;4998;51.024;13.828;2023-02-28T12:33:56;8.30;;;6.30;;
9918;SDS011;4998;51.024;13.828;2023-02-28T12:36:28;8.93;;;5.90;;
9918;SDS011;4998;51.024;13.828;2023-02-28T12:38:56;8.00;;;6.20;;
9918;SDS011;4998;51.024;13.828;2023-02-28T12:41:33;6.60;;;5.90;;
9918;SDS011;4998;51.024;13.828;2023-02-28T12:44:06;6.37;;;5.67;;
9918;SDS011;4998;51.024;13.828;2023-02-28T12:46:38;6.90;;;5.57;;
9918;SDS011;4998;51.024;13.828;2023-02-28T12:49:09;6.80;;;5.33;;
9918;SDS011;4998;51.024;13.828;2023-02-28T12:51:40;6.57;;;5.33;;
9918;SDS011;4998;51.024;13.828;2023-02-28T12:54:11;10.40;;;7.10;;
9918;SDS011;4998;51.024;13.828;2023-02-28T12:56:48;8.80;;;6.23;;
9918;SDS011;4998;51.024;13.828;2023-02-28T12:59:22;6.40;;;5.40;;
9918;SDS011;4998;51.024;13.828;2023-02-28T13:01:57;6.77;;;5.90;;
9918;SDS011;4998;51.024;13.828;2023-02-28T13:07:51;7.40;;;5.87;;
9918;SDS011;4998;51.024;13.828;2023-02-28T13:10:42;8.37;;;5.87;;
9918;SDS011;4998;51.024;13.828;2023-02-28T13:13:16;8.00;;;6.10;;
9918;SDS011;4998;51.024;13.828;2023-02-28T13:15:56;7.40;;;6.13;;
9918;SDS011;4998;51.024;13.828;2023-02-28T13:18:27;9.10;;;6.90;;
9918;SDS011;4998;51.024;13.828;2023-02-28T13:20:57;9.33;;;7.10;;
9918;SDS011;4998;51.024;13.828;2023-02-28T13:29:38;8.43;;;6.20;;
9918;SDS011;4998;51.024;13.828;2023-02-28T13:35:14;10.57;;;6.80;;
9918;SDS011;4998;51.024;13.828;2023-02-28T13:38:08;10.40;;;7.23;;
9918;SDS011;4998;51.024;13.828;2023-02-28T13:40:41;7.70;;;6.37;;
9918;SDS011;4998;51.024;13.828;2023-02-28T13:43:08;8.33;;;6.67;;
9918;SDS011;4998;51.024;13.828;2023-02-28T13:45:37;9.33;;;7.20;;
9918;SDS011;4998;51.024;13.828;2023-02-28T13:48:14;9.07;;;6.70;;
9918;SDS011;4998;51.024;13.828;2023-02-28T13:50:42;9.57;;;6.80;;
9918;SDS011;4998;51.024;13.828;2023-02-28T13:53:26;8.77;;;7.50;;
9918;SDS011;4998;51.024;13.828;2023-02-28T13:56:10;8.67;;;6.63;;
9918;SDS011;4998;51.024;13.828;2023-02-28T13:58:54;8.70;;;6.97;;
9918;SDS011;4998;51.024;13.828;2023-02-28T14:01:30;9.53;;;7.33;;
9918;SDS011;4998;51.024;13.828;2023-02-28T14:07:05;7.97;;;6.57;;
9918;SDS011;4998;51.024;13.828;2023-02-28T14:09:33;10.90;;;8.17;;
9918;SDS011;4998;51.024;13.828;2023-02-28T14:17:58;14.87;;;7.37;;
9918;SDS011;4998;51.024;13.828;2023-02-28T14:20:29;9.30;;;7.13;;
9918;SDS011;4998;51.024;13.828;2023-02-28T14:23:01;8.80;;;6.80;;
9918;SDS011;4998;51.024;13.828;2023-02-28T14:25:36;8.70;;;7.23;;
9918;SDS011;4998;51.024;13.828;2023-02-28T14:28:12;8.67;;;7.20;;
9918;SDS011;4998;51.024;13.828;2023-02-28T14:36:31;8.50;;;7.20;;
9918;SDS011;4998;51.024;13.828;2023-02-28T14:39:01;7.67;;;6.77;;
9918;SDS011;4998;51.024;13.828;2023-02-28T14:41:33;9.40;;;7.27;;
9918;SDS011;4998;51.024;13.828;2023-02-28T14:44:12;12.53;;;7.73;;
9918;SDS011;4998;51.024;13.828;2023-02-28T14:46:41;11.10;;;7.40;;
9918;SDS011;4998;51.024;13.828;2023-02-28T14:49:15;9.90;;;7.20;;
9918;SDS011;4998;51.024;13.828;2023-02-28T14:52:00;10.53;;;6.83;;
9918;SDS011;4998;51.024;13.828;2023-02-28T14:54:29;9.73;;;7.20;;
9918;SDS011;4998;51.024;13.828;2023-02-28T14:56:56;12.27;;;7.40;;
9918;SDS011;4998;51.024;13.828;2023-02-28T14:59:25;9.80;;;7.80;;
9918;SDS011;4998;51.024;13.828;2023-02-28T15:04:42;10.00;;;7.00;;
9918;SDS011;4998;51.024;13.828;2023-02-28T15:07:10;9.50;;;7.87;;
9918;SDS011;4998;51.024;13.828;2023-02-28T15:09:39;7.70;;;6.90;;
9918;SDS011;4998;51.024;13.828;2023-02-28T15:12:06;12.10;;;7.27;;
9918;SDS011;4998;51.024;13.828;2023-02-28T15:14:34;11.80;;;7.47;;
9918;SDS011;4998;51.024;13.828;2023-02-28T15:17:05;9.53;;;7.23;;
9918;SDS011;4998;51.024;13.828;2023-02-28T15:19:39;7.70;;;6.90;;
9918;SDS011;4998;51.024;13.828;2023-02-28T15:22:14;8.27;;;6.57;;
9918;SDS011;4998;51.024;13.828;2023-02-28T15:24:44;10.50;;;7.60;;
9918;SDS011;4998;51.024;13.828;2023-02-28T15:27:15;10.43;;;7.90;;
9918;SDS011;4998;51.024;13.828;2023-02-28T15:29:47;8.77;;;6.90;;
9918;SDS011;4998;51.024;13.828;2023-02-28T15:32:23;9.60;;;6.20;;
9918;SDS011;4998;51.024;13.828;2023-02-28T15:34:54;9.97;;;7.30;;
9918;SDS011;4998;51.024;13.828;2023-02-28T15:37:26;8.97;;;6.57;;
9918;SDS011;4998;51.024;13.828;2023-02-28T15:39:56;8.90;;;6.40;;
9918;SDS011;4998;51.024;13.828;2023-02-28T15:42:29;10.37;;;6.90;;
9918;SDS011;4998;51.024;13.828;2023-02-28T15:44:56;8.63;;;6.23;;
9918;SDS011;4998;51.024;13.828;2023-02-28T15:47:25;8.63;;;7.40;;
9918;SDS011;4998;51.024;13.828;2023-02-28T15:49:56;8.33;;;6.70;;
9918;SDS011;4998;51.024;13.828;2023-02-28T15:52:27;9.00;;;6.70;;
9918;SDS011;4998;51.024;13.828;2023-02-28T15:55:06;13.63;;;7.00;;
9918;SDS011;4998;51.024;13.828;2023-02-28T15:57:38;10.13;;;7.40;;
9918;SDS011;4998;51.024;13.828;2023-02-28T16:00:09;9.80;;;7.30;;